Terminal Aerodrome Forecast
Issued by NWS Wichita, KS

Home | Current Version | Previous Version | Graphics & Text | Print | Product List | Glossary On
Versions: 1 2 3 4 5 6 7 8 9 10 11 12 13 14 15 16 17 18 19 20 21 22 23 24
000
FTUS43 KICT 250718 AAA
TAFICT
TAF AMD
KICT 250718Z 2507/2606 34018KT P6SM VCSH SCT005 OVC007
     FM251500 33017G25KT P6SM SCT009 OVC015
     FM251800 34015G22KT P6SM SCT015 OVC025
     FM260000 34010KT P6SM SCT025
     FM260300 36005KT P6SM SCT250=

USA.gov is the U.S. government's official web portal to all federal, state and local government web resources and services.